createdAt,value
2022-09-23T00:01:21.747Z,11.28
2022-09-23T00:03:50.535Z,11.31
2022-09-23T00:06:22.738Z,11.28
2022-09-23T00:08:50.701Z,11.26
2022-09-23T00:11:20.657Z,11.27
2022-09-23T00:13:49.536Z,11.25
2022-09-23T00:16:19.979Z,11.23
2022-09-23T00:18:49.746Z,11.15
2022-09-23T00:21:17.823Z,11.10
2022-09-23T00:23:45.419Z,11.08
2022-09-23T00:26:15.917Z,10.98
2022-09-23T00:28:43.776Z,11.00
2022-09-23T00:31:14.003Z,10.93
2022-09-23T00:33:42.078Z,10.89
2022-09-23T00:36:11.371Z,10.81
2022-09-23T00:38:39.147Z,10.73
2022-09-23T00:41:06.802Z,10.71
2022-09-23T00:43:44.802Z,10.68
2022-09-23T00:46:16.790Z,10.58
2022-09-23T00:48:44.575Z,10.57
2022-09-23T00:51:15.061Z,10.54
2022-09-23T00:53:44.801Z,10.57
2022-09-23T00:56:12.530Z,10.54
2022-09-23T00:58:40.991Z,10.44
2022-09-23T01:01:08.693Z,10.40
2022-09-23T01:03:36.354Z,10.36
2022-09-23T01:06:04.163Z,10.37
2022-09-23T01:08:33.244Z,10.30
2022-09-23T01:11:06.870Z,10.33
2022-09-23T01:13:51.348Z,10.29
2022-09-23T01:16:39.316Z,10.19
2022-09-23T01:19:39.938Z,10.19
2022-09-23T01:22:36.030Z,10.12
2022-09-23T01:25:19.269Z,10.13
2022-09-23T01:27:58.016Z,10.04
2022-09-23T01:30:46.575Z,10.03
2022-09-23T01:33:24.628Z,10.00
2022-09-23T01:36:14.730Z,10.00
2022-09-23T01:38:45.971Z,9.95
2022-09-23T01:41:24.230Z,10.01
2022-09-23T01:44:06.289Z,10.04
2022-09-23T01:46:48.004Z,10.03
2022-09-23T01:49:20.613Z,10.03
2022-09-23T01:52:12.859Z,10.01
2022-09-23T01:54:45.535Z,9.96
2022-09-23T01:57:19.032Z,10.02
2022-09-23T01:59:49.340Z,10.04
2022-09-23T02:02:26.758Z,10.09
2022-09-23T02:05:02.516Z,10.08
2022-09-23T02:07:50.434Z,10.05
2022-09-23T02:10:44.894Z,9.99
2022-09-23T02:13:45.308Z,9.99
2022-09-23T02:16:29.482Z,10.00
2022-09-23T02:19:09.912Z,10.00
2022-09-23T02:21:41.262Z,10.02
2022-09-23T02:24:34.779Z,10.01
2022-09-23T02:27:13.204Z,10.08
2022-09-23T02:29:57.523Z,10.02
2022-09-23T02:33:02.864Z,9.96
2022-09-23T02:35:44.346Z,9.98
2022-09-23T02:38:27.673Z,9.92
2022-09-23T02:40:58.858Z,9.97
2022-09-23T02:43:35.652Z,9.98
2022-09-23T02:46:04.140Z,9.99
2022-09-23T02:48:36.028Z,9.90
2022-09-23T02:51:04.504Z,9.98
2022-09-23T02:53:34.783Z,9.98
2022-09-23T02:56:03.172Z,9.89
2022-09-23T02:58:30.901Z,9.92
2022-09-23T03:01:13.247Z,9.86
2022-09-23T03:03:55.108Z,9.88
2022-09-23T03:06:51.851Z,9.86
2022-09-23T03:09:50.676Z,9.88
2022-09-23T03:12:53.041Z,9.86
2022-09-23T03:18:40.423Z,9.78
2022-09-23T03:21:11.650Z,9.79
2022-09-23T03:23:40.086Z,9.75
2022-09-23T03:26:12.445Z,9.77
2022-09-23T03:28:42.103Z,9.83
2022-09-23T03:31:11.450Z,9.84
2022-09-23T03:33:39.593Z,9.82
2022-09-23T03:36:27.756Z,9.82
2022-09-23T03:39:07.080Z,9.89
2022-09-23T03:41:41.946Z,9.88
2022-09-23T03:44:09.748Z,9.87
2022-09-23T03:46:37.386Z,9.89
2022-09-23T03:49:22.752Z,9.96
2022-09-23T03:51:50.574Z,9.95
2022-09-23T03:54:20.449Z,9.95
2022-09-23T03:56:48.583Z,10.02
2022-09-23T03:59:16.445Z,10.08
2022-09-23T04:01:44.209Z,10.06
2022-09-23T04:04:11.845Z,10.13
2022-09-23T04:06:39.600Z,10.10
2022-09-23T04:09:07.848Z,10.10
2022-09-23T04:11:35.876Z,10.11
2022-09-23T04:14:04.514Z,10.16
2022-09-23T04:16:33.434Z,10.22
2022-09-23T04:19:01.350Z,10.22
2022-09-23T04:21:31.518Z,10.37
2022-09-23T04:23:59.207Z,10.40
2022-09-23T04:26:26.976Z,10.41
2022-09-23T04:28:55.163Z,10.47
2022-09-23T04:31:25.462Z,10.53
2022-09-23T04:33:53.682Z,10.57
2022-09-23T04:36:21.798Z,10.63
2022-09-23T04:38:49.857Z,10.52
2022-09-23T04:41:18.287Z,10.54
2022-09-23T04:43:46.055Z,10.53
2022-09-23T04:46:14.982Z,10.63
2022-09-23T04:48:42.779Z,10.56
2022-09-23T04:51:15.123Z,10.64
2022-09-23T04:53:43.955Z,10.64
2022-09-23T04:56:14.753Z,10.68
2022-09-23T04:58:43.539Z,10.81
2022-09-23T05:01:12.643Z,10.84
2022-09-23T05:03:41.085Z,11.03
2022-09-23T05:06:09.108Z,11.24
2022-09-23T05:08:39.686Z,11.38
2022-09-23T05:11:07.703Z,11.48
2022-09-23T05:13:35.658Z,11.56
2022-09-23T05:16:05.475Z,11.52
2022-09-23T05:18:44.047Z,11.52
2022-09-23T05:21:14.371Z,11.49
2022-09-23T05:23:42.538Z,11.70
2022-09-23T05:26:11.983Z,11.76
2022-09-23T05:28:40.250Z,11.86
2022-09-23T05:31:19.749Z,11.88
2022-09-23T05:33:49.947Z,11.97
2022-09-23T05:36:18.876Z,11.94
2022-09-23T05:38:46.626Z,11.97
2022-09-23T05:41:14.330Z,12.08
2022-09-23T05:43:43.166Z,12.18
2022-09-23T05:46:12.905Z,12.30
2022-09-23T05:48:46.334Z,12.40
2022-09-23T05:51:18.593Z,12.47
2022-09-23T05:53:47.243Z,12.64
2022-09-23T05:56:18.605Z,12.52
2022-09-23T05:58:47.314Z,12.61
2022-09-23T06:01:18.214Z,12.70
2022-09-23T06:03:49.992Z,12.95
2022-09-23T06:06:22.069Z,12.95
2022-09-23T06:08:50.194Z,13.06
2022-09-23T06:11:18.316Z,13.13
2022-09-23T06:13:46.075Z,13.24
2022-09-23T06:16:14.930Z,13.36
2022-09-23T06:18:43.483Z,13.51
2022-09-23T06:21:13.505Z,13.72
2022-09-23T06:23:43.299Z,13.79
2022-09-23T06:26:14.029Z,13.93
2022-09-23T06:28:43.163Z,14.02
2022-09-23T06:31:13.766Z,14.20
2022-09-23T06:33:43.211Z,14.20
2022-09-23T06:36:11.558Z,14.25
2022-09-23T06:38:41.232Z,14.60
2022-09-23T06:41:09.224Z,14.75
2022-09-23T06:43:37.269Z,14.97
2022-09-23T06:46:05.493Z,15.15
2022-09-23T06:48:41.719Z,15.28
2022-09-23T06:51:19.201Z,15.42
2022-09-23T06:53:48.507Z,15.52
2022-09-23T06:56:17.920Z,15.56
2022-09-23T06:58:46.401Z,15.72
2022-09-23T07:01:17.235Z,15.91
2022-09-23T07:03:45.932Z,15.84
2022-09-23T07:06:13.698Z,15.72
2022-09-23T07:08:43.789Z,15.84
2022-09-23T07:11:13.509Z,16.14
2022-09-23T07:13:44.386Z,16.15
2022-09-23T07:16:14.105Z,16.34
2022-09-23T07:18:45.211Z,16.27
2022-09-23T07:21:15.595Z,16.12
2022-09-23T07:23:44.353Z,16.03
2022-09-23T07:26:12.832Z,15.92
2022-09-23T07:28:40.620Z,15.87
2022-09-23T07:31:17.032Z,15.86
2022-09-23T07:33:45.652Z,15.74
2022-09-23T07:36:17.613Z,15.66
2022-09-23T07:38:46.376Z,15.62
2022-09-23T07:41:17.530Z,15.59
2022-09-23T07:43:49.153Z,15.71
2022-09-23T07:46:17.611Z,15.95
2022-09-23T07:48:46.866Z,16.02
2022-09-23T07:51:25.866Z,16.24
2022-09-23T07:53:54.290Z,16.26
2022-09-23T07:56:24.921Z,16.47
2022-09-23T07:59:01.915Z,16.51
2022-09-23T08:01:31.799Z,16.36
2022-09-23T08:04:01.333Z,16.50
2022-09-23T08:06:30.448Z,16.81
2022-09-23T08:08:58.963Z,16.79
2022-09-23T08:11:28.326Z,16.77
2022-09-23T08:13:57.444Z,16.58
2022-09-23T08:16:25.318Z,16.24
2022-09-23T08:18:53.212Z,16.28
2022-09-23T08:21:21.475Z,16.47
2022-09-23T08:23:52.940Z,16.68
2022-09-23T08:26:22.458Z,16.91
2022-09-23T08:28:54.021Z,16.96
2022-09-23T08:31:22.664Z,16.74
2022-09-23T08:33:57.811Z,16.44
2022-09-23T08:36:28.839Z,16.63
2022-09-23T08:38:57.610Z,16.51
2022-09-23T08:41:38.419Z,16.41
2022-09-23T08:44:27.490Z,16.29
2022-09-23T08:47:13.743Z,16.37
2022-09-23T08:50:05.915Z,16.41
2022-09-23T08:53:01.588Z,16.46
2022-09-23T08:55:39.964Z,16.65
2022-09-23T08:58:26.533Z,16.78
2022-09-23T09:01:19.343Z,17.05
2022-09-23T09:04:02.661Z,17.19
2022-09-23T09:06:53.100Z,17.57
2022-09-23T09:09:37.040Z,17.96
2022-09-23T09:12:11.649Z,18.02
2022-09-23T09:15:07.117Z,18.18
2022-09-23T09:17:39.972Z,17.97
2022-09-23T09:20:23.435Z,17.68
2022-09-23T09:23:01.113Z,17.56
2022-09-23T09:25:50.333Z,17.43
2022-09-23T09:28:28.463Z,17.24
2022-09-23T09:30:58.215Z,17.10
2022-09-23T09:33:35.412Z,17.01
2022-09-23T09:36:31.125Z,17.09
2022-09-23T09:38:59.620Z,17.11
2022-09-23T09:41:31.615Z,17.10
2022-09-23T09:44:01.110Z,17.12
2022-09-23T09:46:36.675Z,17.19
2022-09-23T09:49:40.536Z,17.68
2022-09-23T09:52:24.340Z,17.98
2022-09-23T09:54:53.084Z,17.93
2022-09-23T09:57:39.430Z,17.98
2022-09-23T10:00:22.052Z,17.89
2022-09-23T10:02:56.751Z,18.06
2022-09-23T10:05:47.371Z,17.99
2022-09-23T10:08:27.054Z,17.88
2022-09-23T10:11:01.215Z,18.31
2022-09-23T10:13:31.236Z,17.92
2022-09-23T10:16:04.197Z,17.75
2022-09-23T10:18:35.553Z,17.81
2022-09-23T10:21:07.306Z,17.58
2022-09-23T10:23:35.440Z,17.26
2022-09-23T10:26:05.698Z,17.27
2022-09-23T10:29:01.403Z,17.20
2022-09-23T10:31:33.016Z,17.45
2022-09-23T10:34:02.126Z,17.51
2022-09-23T10:36:33.009Z,17.70
2022-09-23T10:39:23.489Z,17.73
2022-09-23T10:42:39.267Z,17.66
2022-09-23T10:45:45.079Z,17.70
2022-09-23T10:48:19.732Z,17.69
2022-09-23T10:50:51.832Z,17.74
2022-09-23T10:53:34.514Z,17.74
2022-09-23T10:56:17.426Z,17.73
2022-09-23T10:59:04.383Z,17.61
2022-09-23T11:01:49.916Z,17.61
2022-09-23T11:04:55.403Z,17.76
2022-09-23T11:07:37.269Z,17.57
2022-09-23T11:10:46.906Z,17.25
2022-09-23T11:13:54.194Z,17.23
2022-09-23T11:16:41.074Z,17.48
2022-09-23T11:19:45.920Z,17.50
2022-09-23T11:22:16.830Z,17.88
2022-09-23T11:24:58.519Z,18.23
2022-09-23T11:27:45.177Z,18.33
2022-09-23T11:30:14.373Z,18.08
2022-09-23T11:33:14.673Z,18.26
2022-09-23T11:35:58.093Z,18.34
2022-09-23T11:38:36.106Z,18.59
2022-09-23T11:41:30.972Z,18.80
2022-09-23T11:44:29.306Z,18.83
2022-09-23T11:47:27.893Z,18.19
2022-09-23T11:49:58.318Z,17.89
2022-09-23T11:52:45.561Z,17.90
2022-09-23T11:55:21.970Z,17.91
2022-09-23T11:58:02.162Z,18.05
2022-09-23T12:00:36.239Z,18.19
2022-09-23T12:03:12.338Z,18.73
2022-09-23T12:05:44.741Z,19.06
2022-09-23T12:08:43.185Z,19.07
2022-09-23T12:11:19.919Z,19.28
2022-09-23T12:14:12.346Z,19.40
2022-09-23T12:17:09.187Z,19.51
2022-09-23T12:19:48.872Z,19.72
2022-09-23T12:22:27.142Z,19.39
2022-09-23T12:24:58.500Z,18.61
2022-09-23T12:27:39.297Z,18.23
2022-09-23T12:30:18.196Z,17.88
2022-09-23T12:32:46.748Z,17.75
2022-09-23T12:35:25.264Z,17.61
2022-09-23T12:37:53.041Z,17.59
2022-09-23T12:40:44.053Z,18.58
2022-09-23T12:43:21.383Z,19.42
2022-09-23T12:45:49.685Z,19.33
2022-09-23T12:48:27.129Z,19.79
2022-09-23T12:51:04.226Z,19.80
2022-09-23T12:53:35.218Z,19.57
2022-09-23T12:56:18.505Z,20.00
2022-09-23T12:58:46.238Z,20.14
2022-09-23T13:01:24.488Z,20.01
2022-09-23T13:04:12.776Z,19.93
2022-09-23T13:06:42.569Z,19.94
2022-09-23T13:09:13.774Z,19.95
2022-09-23T13:11:43.430Z,20.10
2022-09-23T13:14:13.614Z,20.50
2022-09-23T13:16:46.104Z,20.55
2022-09-23T13:19:25.799Z,20.02
2022-09-23T13:21:53.489Z,20.14
2022-09-23T13:24:34.554Z,20.19
2022-09-23T13:27:02.322Z,20.17
2022-09-23T13:29:57.818Z,20.20
2022-09-23T13:32:32.138Z,19.82
2022-09-23T13:35:15.908Z,19.71
2022-09-23T13:37:47.679Z,19.77
2022-09-23T13:40:24.071Z,19.82
2022-09-23T13:42:59.306Z,20.21
2022-09-23T13:45:28.261Z,20.15
2022-09-23T13:48:06.132Z,19.83
2022-09-23T13:50:35.275Z,19.38
2022-09-23T13:53:09.373Z,19.38
2022-09-23T13:55:38.905Z,19.53
2022-09-23T13:58:20.314Z,19.38
2022-09-23T14:00:48.381Z,19.38
2022-09-23T14:03:36.512Z,19.43
2022-09-23T14:06:11.451Z,19.18
2022-09-23T14:08:40.539Z,18.41
2022-09-23T14:11:08.604Z,18.04
2022-09-23T14:13:41.644Z,17.36
2022-09-23T14:16:10.990Z,17.70
2022-09-23T14:18:55.658Z,17.73
2022-09-23T14:21:29.580Z,18.01
2022-09-23T14:23:57.539Z,17.52
2022-09-23T14:26:25.492Z,17.03
2022-09-23T14:28:53.206Z,16.69
2022-09-23T14:31:20.905Z,16.50
2022-09-23T14:33:48.645Z,16.45
2022-09-23T14:36:35.774Z,16.23
2022-09-23T14:39:05.674Z,15.73
2022-09-23T14:41:38.803Z,15.55
2022-09-23T14:44:07.564Z,15.49
2022-09-23T14:46:38.719Z,15.32
2022-09-23T14:49:12.379Z,15.24
2022-09-23T14:51:54.638Z,15.10
2022-09-23T14:54:39.235Z,15.00
2022-09-23T14:57:26.146Z,14.89
2022-09-23T14:59:59.849Z,14.69
2022-09-23T15:02:31.686Z,14.66
2022-09-23T15:05:15.910Z,14.53
2022-09-23T15:07:47.447Z,14.41
2022-09-23T15:10:34.422Z,14.27
2022-09-23T15:13:14.711Z,14.13
2022-09-23T15:15:43.102Z,14.04
2022-09-23T15:18:27.223Z,13.94
2022-09-23T15:21:10.502Z,13.67
2022-09-23T15:23:47.476Z,13.56
2022-09-23T15:26:22.132Z,13.34
2022-09-23T15:28:50.275Z,13.10
2022-09-23T15:31:19.243Z,12.94
2022-09-23T15:33:47.957Z,12.77
2022-09-23T15:36:18.070Z,12.50
2022-09-23T15:38:46.166Z,12.44
2022-09-23T15:41:14.584Z,12.23
2022-09-23T15:43:42.708Z,12.15
2022-09-23T15:46:23.429Z,12.09
2022-09-23T15:49:00.238Z,12.04
2022-09-23T15:51:28.753Z,11.95
2022-09-23T15:53:59.194Z,11.93
2022-09-23T15:56:27.319Z,11.78
2022-09-23T15:58:55.283Z,11.77
2022-09-23T16:01:30.801Z,11.87
2022-09-23T16:04:01.477Z,11.94
2022-09-23T16:06:29.653Z,11.97
2022-09-23T16:08:57.577Z,11.91
2022-09-23T16:11:27.412Z,12.00
2022-09-23T16:13:55.109Z,12.01
2022-09-23T16:16:22.962Z,12.10
2022-09-23T16:18:53.788Z,12.10
2022-09-23T16:21:25.409Z,12.14
2022-09-23T16:23:53.640Z,12.09
2022-09-23T16:26:34.834Z,12.10
2022-09-23T16:29:03.019Z,12.06
2022-09-23T16:31:31.495Z,12.12
2022-09-23T16:34:02.699Z,12.08
2022-09-23T16:36:39.671Z,12.12
2022-09-23T16:39:10.982Z,12.23
2022-09-23T16:41:38.855Z,12.32
2022-09-23T16:44:09.462Z,12.42
2022-09-23T16:46:38.205Z,12.38
2022-09-23T16:49:05.998Z,12.24
2022-09-23T16:51:38.668Z,12.08
2022-09-23T16:54:10.813Z,11.85
2022-09-23T16:56:44.499Z,11.76
2022-09-23T16:59:16.245Z,11.63
2022-09-23T17:02:02.708Z,11.52
2022-09-23T17:04:31.699Z,11.42
2022-09-23T17:06:59.330Z,11.40
2022-09-23T17:09:28.465Z,11.44
2022-09-23T17:12:12.260Z,11.39
2022-09-23T17:14:40.143Z,11.29
2022-09-23T17:17:09.396Z,11.39
2022-09-23T17:19:38.368Z,11.40
2022-09-23T17:22:06.141Z,11.55
2022-09-23T17:24:35.276Z,11.71
2022-09-23T17:27:03.599Z,11.81
2022-09-23T17:29:31.577Z,11.91
2022-09-23T17:31:59.493Z,12.02
2022-09-23T17:34:29.052Z,12.10
2022-09-23T17:36:56.771Z,12.21
2022-09-23T17:39:24.437Z,12.33
2022-09-23T17:41:53.052Z,12.37
2022-09-23T17:44:20.690Z,12.42
2022-09-23T17:46:49.372Z,12.46
2022-09-23T17:49:18.332Z,12.47
2022-09-23T17:51:45.942Z,12.49
2022-09-23T17:54:15.190Z,12.57
2022-09-23T17:56:42.937Z,12.58
2022-09-23T17:59:14.970Z,12.67
2022-09-23T18:01:43.355Z,12.65
2022-09-23T18:04:11.092Z,12.61
2022-09-23T18:06:39.985Z,12.65
2022-09-23T18:09:08.766Z,12.61
2022-09-23T18:11:39.229Z,12.58
2022-09-23T18:14:12.461Z,12.64
2022-09-23T18:16:40.809Z,12.60
2022-09-23T18:19:11.246Z,12.60
2022-09-23T18:21:40.908Z,12.59
2022-09-23T18:26:59.877Z,12.43
2022-09-23T18:29:28.268Z,12.39
2022-09-23T18:31:55.968Z,12.31
2022-09-23T18:34:24.475Z,12.23
2022-09-23T18:36:54.371Z,12.26
2022-09-23T18:39:22.177Z,12.21
2022-09-23T18:41:50.457Z,12.24
2022-09-23T18:44:18.910Z,12.23
2022-09-23T18:46:46.698Z,12.29
2022-09-23T18:49:32.797Z,12.26
2022-09-23T18:52:00.504Z,12.31
2022-09-23T18:54:28.519Z,12.33
2022-09-23T18:56:56.788Z,12.30
2022-09-23T18:59:28.054Z,12.26
2022-09-23T19:01:56.230Z,12.20
2022-09-23T19:04:24.936Z,12.11
2022-09-23T19:06:54.071Z,12.09
2022-09-23T19:09:22.249Z,12.05
2022-09-23T19:11:52.368Z,12.09
2022-09-23T19:14:20.096Z,12.09
2022-09-23T19:16:49.407Z,12.10
2022-09-23T19:19:17.259Z,12.02
2022-09-23T19:21:45.034Z,11.90
2022-09-23T19:24:15.992Z,11.86
2022-09-23T19:26:44.089Z,11.84
2022-09-23T19:29:16.799Z,11.87
2022-09-23T19:31:44.630Z,11.86
2022-09-23T19:34:14.086Z,11.89
2022-09-23T19:36:43.570Z,11.90
2022-09-23T19:39:22.661Z,11.91
2022-09-23T19:41:50.951Z,11.92
2022-09-23T19:44:20.340Z,11.90
2022-09-23T19:46:55.151Z,11.91
2022-09-23T19:49:24.992Z,11.98
2022-09-23T19:51:55.735Z,12.04
2022-09-23T19:54:24.693Z,12.03
2022-09-23T19:56:52.374Z,12.08
2022-09-23T19:59:20.137Z,12.14
2022-09-23T20:01:48.499Z,12.16
2022-09-23T20:04:16.837Z,12.20
2022-09-23T20:06:46.207Z,12.23
2022-09-23T20:09:14.551Z,12.29
2022-09-23T20:11:43.216Z,12.25
2022-09-23T20:14:11.051Z,12.35
2022-09-23T20:16:40.562Z,12.32
2022-09-23T20:19:09.328Z,12.38
2022-09-23T20:21:37.175Z,12.34
2022-09-23T20:24:06.649Z,12.34
2022-09-23T20:26:52.864Z,12.37
2022-09-23T20:29:20.668Z,12.42
2022-09-23T20:31:48.340Z,12.51
2022-09-23T20:34:17.030Z,12.56
2022-09-23T20:36:44.737Z,12.59
2022-09-23T20:39:13.190Z,12.57
2022-09-23T20:41:40.835Z,12.47
2022-09-23T20:44:12.734Z,12.38
2022-09-23T20:46:47.460Z,12.40
2022-09-23T20:49:16.810Z,12.30
2022-09-23T20:51:44.514Z,12.16
2022-09-23T20:54:12.383Z,11.92
2022-09-23T20:56:40.052Z,11.71
2022-09-23T20:59:09.543Z,11.54
2022-09-23T21:01:37.407Z,11.31
2022-09-23T21:04:05.965Z,11.14
2022-09-23T21:06:35.951Z,10.84
2022-09-23T21:09:04.471Z,10.64
2022-09-23T21:11:32.708Z,10.47
2022-09-23T21:14:01.933Z,10.34
2022-09-23T21:16:30.001Z,10.22
2022-09-23T21:18:57.970Z,10.05
2022-09-23T21:21:25.808Z,9.88
2022-09-23T21:23:53.515Z,9.79
2022-09-23T21:26:23.484Z,9.65
2022-09-23T21:28:53.641Z,9.53
2022-09-23T21:31:23.482Z,9.47
2022-09-23T21:34:02.050Z,9.37
2022-09-23T21:36:30.983Z,9.35
2022-09-23T21:39:01.680Z,9.29
2022-09-23T21:41:29.563Z,9.24
2022-09-23T21:43:58.178Z,9.17
2022-09-23T21:46:26.384Z,9.14
2022-09-23T21:48:55.291Z,9.13
2022-09-23T21:51:27.297Z,9.18
2022-09-23T21:53:57.045Z,9.18
2022-09-23T21:56:27.200Z,9.15
2022-09-23T21:58:55.738Z,9.09
2022-09-23T22:01:25.368Z,9.14
2022-09-23T22:03:54.720Z,9.13
2022-09-23T22:06:24.244Z,9.14
2022-09-23T22:08:59.233Z,9.15
2022-09-23T22:11:46.752Z,9.10
2022-09-23T22:14:15.212Z,9.21
2022-09-23T22:16:42.992Z,9.20
2022-09-23T22:19:11.153Z,9.23
2022-09-23T22:21:40.415Z,9.26
2022-09-23T22:24:09.275Z,9.29
2022-09-23T22:26:39.868Z,9.28
2022-09-23T22:29:26.904Z,9.33
2022-09-23T22:32:13.099Z,9.40
2022-09-23T22:34:51.581Z,9.51
2022-09-23T22:37:21.829Z,9.53
2022-09-23T22:39:49.593Z,9.44
2022-09-23T22:42:17.273Z,9.39
2022-09-23T22:44:46.125Z,9.56
2022-09-23T22:47:13.822Z,9.61
2022-09-23T22:49:42.258Z,9.68
2022-09-23T22:52:11.517Z,9.68
2022-09-23T22:54:39.261Z,9.61
2022-09-23T22:57:07.594Z,9.55
2022-09-23T22:59:35.730Z,9.51
2022-09-23T23:02:07.900Z,9.49
2022-09-23T23:04:36.691Z,9.49
2022-09-23T23:07:06.123Z,9.48
2022-09-23T23:09:34.172Z,9.48
2022-09-23T23:12:02.818Z,9.46
2022-09-23T23:14:31.513Z,9.40
2022-09-23T23:16:59.673Z,9.40
2022-09-23T23:19:27.559Z,9.32
2022-09-23T23:21:55.242Z,9.38
2022-09-23T23:24:23.667Z,9.47
2022-09-23T23:26:51.576Z,9.47
2022-09-23T23:29:20.363Z,9.44
2022-09-23T23:31:48.589Z,9.39
2022-09-23T23:34:17.675Z,9.39
2022-09-23T23:36:46.557Z,9.41
2022-09-23T23:39:14.827Z,9.51
2022-09-23T23:41:42.656Z,9.41
2022-09-23T23:44:12.112Z,9.39
2022-09-23T23:46:39.923Z,9.33
2022-09-23T23:49:08.657Z,9.26
2022-09-23T23:51:36.925Z,9.21
2022-09-23T23:54:04.751Z,9.18
2022-09-23T23:56:32.365Z,9.19
2022-09-23T23:59:02.540Z,9.16
